Superior, MT (59872)

6:55 PM MDT on October 24, 2014 (GMT -0600)
RAWS ST. REGIS MT US | Change Station
CLOSE
Current Station
Personal Weather Station
Location: Saint Regis, MT
Elevation: 2645 ft
Nearby Weather Stations

Elev 2645 ft 47.31 °N, 115.11 °W | Updated 53 minutes ago

Overcast
Overcast
50 °F
Feels Like 50 °F
N
0
Wind Variable Wind from North
Gusts 0.0 mph

Today
High -- | Low -- °F
--% Chance of Precip.
Yesterday
High -- | Low -- °F
Precip. -- in
8:10 AM 6:35 PM
New Moon, 1% visible
Pressure 30.13 in
Visibility 10.0 miles
Clouds Mostly Cloudy 6000 ft
Overcast 7500 ft
Dew Point 47 °F
Humidity 91%
Rainfall 0.32 in
Snow Depth 0 in
UV 0 out of 12
Pollen 1.00 out of 12
Air Quality Not available.
Flu Activity No Activity
METAR KMSO 242353Z AUTO 20004KT 10SM -RA BKN060 OVC075 09/07 A3011 RMK AO2 SLP203 P0001 60001 T00940072 10111 20094 58000 TSNO

More Conditions Fewer Conditions

Pressure 30.13 in
Visibility 10.0 miles
Clouds Mostly Cloudy 6000 ft
Overcast 7500 ft
Dew Point 47 °F
Humidity 91%
Rainfall 0.32 in
Snow Depth 0 in
UV 0 out of 12
Pollen 1.00 out of 12
Air Quality Not available.
Flu Activity No Activity
METAR KMSO 242353Z AUTO 20004KT 10SM -RA BKN060 OVC075 09/07 A3011 RMK AO2 SLP203 P0001 60001 T00940072 10111 20094 58000 TSNO

More Conditions Fewer Conditions

10-Day Weather Forecast

Almanac

Astronomy

Oct. 24, 2014 Rise Set
Actual Time 8:10 AM MDT 6:35 PM MDT
Civil Twilight 7:39 AM MDT 7:07 PM MDT
Nautical Twilight 7:03 AM MDT 7:42 PM MDT
Astronomical Twilight 6:28 AM MDT 8:18 PM MDT
Moon 8:56 AM MDT (10/24) 7:15 PM MDT (10/24)
Length of Visible Light 11h 27m
Length of Day
10h 24m
Tomorrow will be 3m 10s shorter.
New Moon, 1% of the Moon is Illuminated
Today
New Moon
Oct 30
First Quarter
Nov 6
Full
Nov 14
Last Quarter
Nov 22
New

Today's Extremes

State Highs State Lows

Community

WunderPhotos

Upload Photos

1,764,735 photos uploaded!

WunderBlogs® & News

Nearby

Snow Depth

Station Depth Elevation
Hoodoo Basin 0 in 6050 ft
Stuart Mountain 1 in 7400 ft
North Fork Jocko 0 in 6330 ft
Kraft Creek 0 in 4750 ft
Twelvemile Creek 0 in 5600 ft

Earthquake Activity

City Distance Mag. Time & Date
No recent earthquake activity has been reported nearby.
Minimum magnitude displayed is 2.5.

Coastal Water Temperatures

Place Temperature
No Stations Reporting

Nearby Weather Stations